createdAt,value
2023-07-19T00:02:16.847Z,100581.81
2023-07-19T00:04:44.495Z,100589.41
2023-07-19T00:07:12.951Z,100579.38
2023-07-19T00:09:40.652Z,100575.38
2023-07-19T00:12:08.737Z,100574.94
2023-07-19T00:14:36.193Z,100586.66
2023-07-19T00:17:03.971Z,100588.72
2023-07-19T00:19:31.532Z,100580.16
2023-07-19T00:21:59.083Z,100555.81
2023-07-19T00:24:26.748Z,100543.75
2023-07-19T00:26:54.986Z,100539.03
2023-07-19T00:29:22.546Z,100548.66
2023-07-19T00:31:50.106Z,100544.81
2023-07-19T00:34:17.625Z,100539.66
2023-07-19T00:36:45.267Z,100532.47
2023-07-19T00:39:13.321Z,100524.59
2023-07-19T00:41:41.777Z,100522.31
2023-07-19T00:44:09.287Z,100510.03
2023-07-19T00:46:39.271Z,100491.75
2023-07-19T00:49:08.773Z,100490.03
2023-07-19T00:51:36.940Z,100475.09
2023-07-19T00:54:08.203Z,100467.75
2023-07-19T00:56:36.296Z,100451.91
2023-07-19T00:59:05.247Z,100442.69
2023-07-19T01:01:33.051Z,100429.97
2023-07-19T01:04:00.925Z,100420.19
2023-07-19T01:06:30.701Z,100417.72
2023-07-19T01:08:58.386Z,100421.38
2023-07-19T01:11:25.946Z,100398.97
2023-07-19T01:13:54.902Z,100397.94
2023-07-19T01:16:23.727Z,100403.47
2023-07-19T01:18:51.343Z,100399.41
2023-07-19T01:21:25.780Z,100396.75
2023-07-19T01:23:54.593Z,100398.00
2023-07-19T01:26:22.186Z,100413.66
2023-07-19T01:28:49.642Z,100415.06
2023-07-19T01:31:17.688Z,100420.00
2023-07-19T01:33:47.097Z,100417.84
2023-07-19T01:36:14.819Z,100405.28
2023-07-19T01:38:42.552Z,100418.38
2023-07-19T01:41:10.130Z,100427.34
2023-07-19T01:43:37.863Z,100437.59
2023-07-19T01:46:05.647Z,100431.03
2023-07-19T01:48:34.672Z,100427.03
2023-07-19T01:51:03.682Z,100427.19
2023-07-19T01:53:31.348Z,100423.44
2023-07-19T01:56:07.576Z,100417.88
2023-07-19T01:58:35.263Z,100416.31
2023-07-19T02:01:02.978Z,100409.38
2023-07-19T02:03:31.637Z,100399.69
2023-07-19T02:06:00.371Z,100396.16
2023-07-19T02:08:28.291Z,100402.69
2023-07-19T02:10:55.895Z,100396.22
2023-07-19T02:13:23.763Z,100395.97
2023-07-19T02:15:51.317Z,100403.13
2023-07-19T02:18:19.105Z,100404.66
2023-07-19T02:20:47.936Z,100400.53
2023-07-19T02:23:19.668Z,100398.31
2023-07-19T02:25:50.711Z,100404.31
2023-07-19T02:28:18.894Z,100408.34
2023-07-19T02:30:47.815Z,100403.63
2023-07-19T02:33:16.722Z,100419.94
2023-07-19T02:35:44.822Z,100419.06
2023-07-19T02:38:13.368Z,100413.13
2023-07-19T02:40:41.396Z,100417.75
2023-07-19T02:43:08.932Z,100425.94
2023-07-19T02:45:38.079Z,100409.72
2023-07-19T02:48:06.139Z,100417.69
2023-07-19T02:50:33.958Z,100419.41
2023-07-19T02:53:01.478Z,100414.25
2023-07-19T02:55:29.316Z,100409.81
2023-07-19T02:57:57.565Z,100412.53
2023-07-19T03:00:25.574Z,100401.91
2023-07-19T03:02:55.473Z,100399.28
2023-07-19T03:05:24.175Z,100400.03
2023-07-19T03:07:51.996Z,100408.47
2023-07-19T03:10:19.508Z,100400.13
2023-07-19T03:12:46.937Z,100419.84
2023-07-19T03:15:14.644Z,100409.91
2023-07-19T03:17:42.382Z,100412.13
2023-07-19T03:20:11.334Z,100403.53
2023-07-19T03:22:38.948Z,100412.66
2023-07-19T03:25:07.184Z,100398.34
2023-07-19T03:27:34.731Z,100413.28
2023-07-19T03:30:03.538Z,100408.00
2023-07-19T03:32:32.034Z,100401.66
2023-07-19T03:34:59.668Z,100411.00
2023-07-19T03:37:27.215Z,100409.38
2023-07-19T03:39:55.148Z,100407.78
2023-07-19T03:42:23.042Z,100419.41
2023-07-19T03:44:50.585Z,100406.25
2023-07-19T03:47:18.501Z,100410.97
2023-07-19T03:49:46.163Z,100401.78
2023-07-19T03:52:13.702Z,100404.53
2023-07-19T03:54:41.264Z,100405.09
2023-07-19T03:57:08.810Z,100401.72
2023-07-19T03:59:36.474Z,100410.94
2023-07-19T04:02:04.211Z,100425.94
2023-07-19T04:04:32.382Z,100434.28
2023-07-19T04:07:00.068Z,100442.44
2023-07-19T04:09:27.568Z,100447.69
2023-07-19T04:11:55.145Z,100449.78
2023-07-19T04:14:22.811Z,100437.84
2023-07-19T04:16:50.646Z,100425.25
2023-07-19T04:19:18.384Z,100410.25
2023-07-19T04:21:45.974Z,100411.13
2023-07-19T04:24:13.598Z,100414.88
2023-07-19T04:26:41.164Z,100424.22
2023-07-19T04:29:08.686Z,100430.41
2023-07-19T04:31:36.273Z,100426.44
2023-07-19T04:34:03.869Z,100436.16
2023-07-19T04:36:32.164Z,100434.03
2023-07-19T04:38:59.723Z,100448.06
2023-07-19T04:41:27.686Z,100436.44
2023-07-19T04:43:55.222Z,100433.97
2023-07-19T04:46:22.949Z,100438.47
2023-07-19T04:48:51.040Z,100437.88
2023-07-19T04:51:19.288Z,100437.50
2023-07-19T04:53:48.897Z,100432.91
2023-07-19T04:56:16.708Z,100422.38
2023-07-19T04:58:44.965Z,100438.47
2023-07-19T05:01:12.840Z,100434.13
2023-07-19T05:03:41.447Z,100434.63
2023-07-19T05:06:08.943Z,100429.41
2023-07-19T05:08:38.706Z,100422.84
2023-07-19T05:11:06.730Z,100424.41
2023-07-19T05:13:34.282Z,100426.09
2023-07-19T05:16:04.976Z,100419.31
2023-07-19T05:18:32.928Z,100412.03
2023-07-19T05:21:01.442Z,100423.94
2023-07-19T05:23:28.910Z,100427.88
2023-07-19T05:25:56.664Z,100411.94
2023-07-19T05:28:24.652Z,100410.38
2023-07-19T05:30:52.288Z,100411.50
2023-07-19T05:33:19.805Z,100418.94
2023-07-19T05:35:50.113Z,100416.03
2023-07-19T05:38:17.789Z,100422.13
2023-07-19T05:40:45.356Z,100417.41
2023-07-19T05:43:12.881Z,100415.16
2023-07-19T05:45:41.022Z,100415.97
2023-07-19T05:48:09.182Z,100415.84
2023-07-19T05:50:39.084Z,100422.72
2023-07-19T05:53:06.717Z,100426.06
2023-07-19T05:55:34.620Z,100417.19
2023-07-19T05:58:02.206Z,100416.28
2023-07-19T06:00:30.198Z,100425.19
2023-07-19T06:02:58.174Z,100426.34
2023-07-19T06:05:26.530Z,100428.91
2023-07-19T06:07:54.605Z,100428.03
2023-07-19T06:10:22.426Z,100431.78
2023-07-19T06:12:51.284Z,100435.56
2023-07-19T06:15:19.028Z,100442.25
2023-07-19T06:17:46.662Z,100439.56
2023-07-19T06:20:14.807Z,100447.06
2023-07-19T06:22:42.553Z,100433.72
2023-07-19T06:25:13.600Z,100444.44
2023-07-19T06:28:14.713Z,100451.50
2023-07-19T06:30:42.748Z,100447.09
2023-07-19T06:33:10.720Z,100442.09
2023-07-19T06:35:38.257Z,100437.91
2023-07-19T06:38:06.073Z,100428.69
2023-07-19T06:40:33.581Z,100446.00
2023-07-19T06:43:01.047Z,100449.06
2023-07-19T06:45:28.664Z,100459.59
2023-07-19T06:47:56.189Z,100455.72
2023-07-19T06:50:24.297Z,100458.56
2023-07-19T06:52:51.823Z,100448.50
2023-07-19T06:55:19.428Z,100457.28
2023-07-19T06:57:47.159Z,100472.13
2023-07-19T07:00:15.222Z,100471.66
2023-07-19T07:02:43.195Z,100471.56
2023-07-19T07:05:13.984Z,100478.94
2023-07-19T07:07:41.585Z,100465.25
2023-07-19T07:10:10.979Z,100477.97
2023-07-19T07:12:38.505Z,100470.94
2023-07-19T07:15:06.643Z,100480.75
2023-07-19T07:17:34.513Z,100489.00
2023-07-19T07:20:02.070Z,100484.91
2023-07-19T07:22:29.589Z,100489.19
2023-07-19T07:24:57.164Z,100476.13
2023-07-19T07:27:24.775Z,100464.66
2023-07-19T07:29:52.291Z,100466.19
2023-07-19T07:32:19.730Z,100474.44
2023-07-19T07:34:47.245Z,100475.28
2023-07-19T07:37:14.771Z,100474.56
2023-07-19T07:39:42.313Z,100457.94
2023-07-19T07:42:10.416Z,100439.75
2023-07-19T07:44:37.968Z,100430.44
2023-07-19T07:47:05.939Z,100418.22
2023-07-19T07:49:33.441Z,100395.38
2023-07-19T07:52:01.032Z,100382.03
2023-07-19T07:54:28.658Z,100371.03
2023-07-19T07:56:56.304Z,100358.69
2023-07-19T07:59:23.858Z,100335.09
2023-07-19T08:01:51.390Z,100318.41
2023-07-19T08:04:19.104Z,100316.84
2023-07-19T08:06:46.714Z,100296.03
2023-07-19T08:09:14.422Z,100300.19
2023-07-19T08:11:41.967Z,100310.97
2023-07-19T08:14:09.536Z,100332.13
2023-07-19T08:16:37.063Z,100350.16
2023-07-19T08:19:04.627Z,100372.28
2023-07-19T08:21:36.806Z,100404.88
2023-07-19T08:24:05.581Z,100421.34
2023-07-19T08:26:33.099Z,100422.22
2023-07-19T08:29:00.870Z,100430.81
2023-07-19T08:31:28.554Z,100425.47
2023-07-19T08:33:56.267Z,100427.09
2023-07-19T08:36:23.983Z,100427.72
2023-07-19T08:38:51.750Z,100411.16
2023-07-19T08:41:25.752Z,100406.09
2023-07-19T08:43:56.822Z,100389.88
2023-07-19T08:46:24.916Z,100388.00
2023-07-19T08:48:52.616Z,100374.63
2023-07-19T08:51:20.796Z,100393.22
2023-07-19T08:53:48.685Z,100394.41
2023-07-19T08:56:17.102Z,100389.19
2023-07-19T08:58:46.443Z,100379.69
2023-07-19T09:01:14.594Z,100353.06
2023-07-19T09:03:42.466Z,100340.19
2023-07-19T09:06:10.218Z,100330.88
2023-07-19T09:08:39.332Z,100341.63
2023-07-19T09:11:07.495Z,100335.28
2023-07-19T09:13:39.078Z,100329.38
2023-07-19T09:16:07.980Z,100320.13
2023-07-19T09:18:39.938Z,100333.91
2023-07-19T09:21:07.947Z,100346.44
2023-07-19T09:23:37.562Z,100349.94
2023-07-19T09:26:06.822Z,100340.03
2023-07-19T09:28:36.088Z,100340.16
2023-07-19T09:31:20.210Z,100338.44
2023-07-19T09:33:57.095Z,100334.84
2023-07-19T09:36:30.947Z,100331.50
2023-07-19T09:38:58.649Z,100321.97
2023-07-19T09:41:26.254Z,100310.84
2023-07-19T09:43:55.241Z,100307.91
2023-07-19T09:46:23.378Z,100306.88
2023-07-19T09:48:51.192Z,100302.34
2023-07-19T09:51:21.623Z,100291.88
2023-07-19T09:53:50.936Z,100291.91
2023-07-19T09:56:18.370Z,100288.88
2023-07-19T09:58:46.566Z,100282.09
2023-07-19T10:01:14.849Z,100280.78
2023-07-19T10:03:45.204Z,100285.59
2023-07-19T10:06:15.934Z,100284.84
2023-07-19T10:08:43.656Z,100293.63
2023-07-19T10:11:24.541Z,100292.38
2023-07-19T10:14:06.416Z,100276.91
2023-07-19T10:16:38.331Z,100272.03
2023-07-19T10:19:13.123Z,100274.47
2023-07-19T10:22:04.717Z,100267.31
2023-07-19T10:24:37.723Z,100277.94
2023-07-19T10:27:08.972Z,100273.38
2023-07-19T10:29:43.960Z,100268.13
2023-07-19T10:32:12.164Z,100262.25
2023-07-19T10:34:45.441Z,100260.88
2023-07-19T10:37:13.423Z,100255.19
2023-07-19T10:39:40.934Z,100258.00
2023-07-19T10:42:08.592Z,100243.59
2023-07-19T10:44:36.172Z,100248.34
2023-07-19T10:47:04.060Z,100248.84
2023-07-19T10:49:32.828Z,100250.94
2023-07-19T10:52:00.356Z,100251.97
2023-07-19T10:54:33.516Z,100245.50
2023-07-19T10:57:09.765Z,100235.25
2023-07-19T10:59:37.277Z,100249.00
2023-07-19T11:02:05.283Z,100239.53
2023-07-19T11:04:36.090Z,100235.13
2023-07-19T11:07:06.352Z,100234.16
2023-07-19T11:09:34.158Z,100233.75
2023-07-19T11:12:01.982Z,100240.91
2023-07-19T11:14:32.136Z,100232.13
2023-07-19T11:17:00.228Z,100231.56
2023-07-19T11:19:36.650Z,100235.69
2023-07-19T11:22:08.751Z,100234.09
2023-07-19T11:24:40.701Z,100234.31
2023-07-19T11:27:09.515Z,100231.34
2023-07-19T11:29:37.090Z,100231.66
2023-07-19T11:32:19.674Z,100229.94
2023-07-19T11:34:53.644Z,100234.06
2023-07-19T11:37:33.491Z,100224.16
2023-07-19T11:40:06.061Z,100219.97
2023-07-19T11:42:49.701Z,100237.72
2023-07-19T11:45:19.580Z,100226.34
2023-07-19T11:47:50.306Z,100233.41
2023-07-19T11:50:17.963Z,100227.91
2023-07-19T11:52:48.006Z,100224.09
2023-07-19T11:55:17.022Z,100223.41
2023-07-19T11:57:48.136Z,100215.00
2023-07-19T12:00:16.533Z,100217.00
2023-07-19T12:02:45.598Z,100225.50
2023-07-19T12:05:18.259Z,100217.72
2023-07-19T12:07:47.028Z,100211.97
2023-07-19T12:10:14.552Z,100212.56
2023-07-19T12:12:42.459Z,100206.22
2023-07-19T12:15:10.878Z,100195.34
2023-07-19T12:17:38.883Z,100200.72
2023-07-19T12:20:08.340Z,100196.25
2023-07-19T12:22:41.234Z,100198.47
2023-07-19T12:25:09.583Z,100190.97
2023-07-19T12:27:39.815Z,100192.91
2023-07-19T12:30:08.200Z,100181.88
2023-07-19T12:32:35.827Z,100177.00
2023-07-19T12:35:04.024Z,100170.13
2023-07-19T12:37:34.550Z,100170.28
2023-07-19T12:40:02.177Z,100168.00
2023-07-19T12:42:31.160Z,100164.13
2023-07-19T12:44:58.728Z,100165.88
2023-07-19T12:47:26.279Z,100156.53
2023-07-19T12:49:53.884Z,100155.88
2023-07-19T12:52:21.598Z,100153.22
2023-07-19T12:54:49.104Z,100145.13
2023-07-19T12:57:16.703Z,100146.78
2023-07-19T12:59:44.338Z,100139.41
2023-07-19T13:02:11.900Z,100141.97
2023-07-19T13:04:39.501Z,100139.53
2023-07-19T13:07:07.702Z,100126.78
2023-07-19T13:09:35.751Z,100128.47
2023-07-19T13:12:03.370Z,100118.25
2023-07-19T13:14:30.920Z,100121.44
2023-07-19T13:17:15.557Z,100108.19
2023-07-19T13:19:48.971Z,100107.63
2023-07-19T13:22:18.072Z,100101.38
2023-07-19T13:24:45.633Z,100097.78
2023-07-19T13:27:13.141Z,100101.66
2023-07-19T13:29:40.620Z,100088.09
2023-07-19T13:32:08.806Z,100089.78
2023-07-19T13:34:36.346Z,100086.91
2023-07-19T13:37:06.348Z,100073.59
2023-07-19T13:39:35.864Z,100074.81
2023-07-19T13:42:04.571Z,100067.34
2023-07-19T13:44:32.785Z,100068.38
2023-07-19T13:47:01.535Z,100063.50
2023-07-19T13:49:29.471Z,100052.50
2023-07-19T13:51:57.210Z,100046.13
2023-07-19T13:54:24.996Z,100047.81
2023-07-19T13:56:52.459Z,100059.06
2023-07-19T13:59:19.961Z,100048.44
2023-07-19T14:01:48.887Z,100042.06
2023-07-19T14:04:16.605Z,100043.16
2023-07-19T14:06:47.260Z,100044.91
2023-07-19T14:09:14.857Z,100043.75
2023-07-19T14:11:45.321Z,100040.81
2023-07-19T14:16:44.972Z,100038.31
2023-07-19T14:19:15.694Z,100029.19
2023-07-19T14:21:45.058Z,100033.44
2023-07-19T14:24:12.868Z,100029.97
2023-07-19T14:26:40.362Z,100018.94
2023-07-19T14:29:07.896Z,100012.34
2023-07-19T14:31:35.545Z,100013.25
2023-07-19T14:34:03.092Z,100004.97
2023-07-19T14:36:31.113Z,99999.19
2023-07-19T14:38:58.822Z,99993.47
2023-07-19T14:41:26.556Z,99999.84
2023-07-19T14:43:54.079Z,99991.53
2023-07-19T14:46:24.411Z,99987.03
2023-07-19T14:48:52.205Z,99981.16
2023-07-19T14:51:19.803Z,99981.72
2023-07-19T14:53:47.813Z,99968.56
2023-07-19T14:56:17.289Z,99970.72
2023-07-19T14:58:45.264Z,99962.88
2023-07-19T15:01:13.363Z,99953.50
2023-07-19T15:03:40.949Z,99946.06
2023-07-19T15:06:08.563Z,99942.41
2023-07-19T15:08:36.144Z,99935.81
2023-07-19T15:11:03.798Z,99933.53
2023-07-19T15:13:31.438Z,99926.72
2023-07-19T15:15:59.230Z,99931.81
2023-07-19T15:18:28.212Z,99915.69
2023-07-19T15:20:56.207Z,99908.25
2023-07-19T15:23:23.831Z,99899.94
2023-07-19T15:25:51.940Z,99893.34
2023-07-19T15:28:29.814Z,99888.47
2023-07-19T15:30:59.560Z,99888.91
2023-07-19T15:33:27.499Z,99887.16
2023-07-19T15:35:55.343Z,99879.97
2023-07-19T15:38:25.049Z,99884.00
2023-07-19T15:40:53.378Z,99872.09
2023-07-19T15:43:21.041Z,99878.47
2023-07-19T15:45:48.699Z,99881.25
2023-07-19T15:48:16.376Z,99869.31
2023-07-19T15:50:45.894Z,99876.75
2023-07-19T15:53:15.978Z,99874.41
2023-07-19T15:55:43.700Z,99877.59
2023-07-19T15:58:11.363Z,99882.91
2023-07-19T16:00:38.971Z,99869.97
2023-07-19T16:03:06.917Z,99870.81
2023-07-19T16:05:34.520Z,99875.69
2023-07-19T16:08:04.631Z,99876.53
2023-07-19T16:10:32.492Z,99870.81
2023-07-19T16:13:00.064Z,99871.66
2023-07-19T16:15:27.713Z,99865.72
2023-07-19T16:17:55.443Z,99863.16
2023-07-19T16:20:23.167Z,99855.72
2023-07-19T16:22:51.015Z,99851.47
2023-07-19T16:25:19.130Z,99859.97
2023-07-19T16:27:47.522Z,99873.38
2023-07-19T16:30:15.212Z,99850.84
2023-07-19T16:32:42.872Z,99857.84
2023-07-19T16:35:10.510Z,99870.81
2023-07-19T16:37:38.048Z,99872.31
2023-07-19T16:40:06.415Z,99866.78
2023-07-19T16:42:34.027Z,99869.31
2023-07-19T16:45:02.159Z,99856.56
2023-07-19T16:47:30.052Z,99879.72
2023-07-19T16:49:57.711Z,99876.31
2023-07-19T16:52:25.589Z,99874.41
2023-07-19T16:54:53.246Z,99878.00
2023-07-19T16:57:20.826Z,99882.22
2023-07-19T16:59:54.078Z,99874.75
2023-07-19T17:02:27.163Z,99883.69
2023-07-19T17:04:54.809Z,99878.63
2023-07-19T17:07:22.326Z,99880.72
2023-07-19T17:09:50.280Z,99880.09
2023-07-19T17:12:17.783Z,99880.94
2023-07-19T17:14:45.279Z,99880.69
2023-07-19T17:17:13.286Z,99883.44
2023-07-19T17:19:40.879Z,99878.34
2023-07-19T17:22:10.022Z,99879.63
2023-07-19T17:24:37.629Z,99876.44
2023-07-19T17:27:05.622Z,99881.69
2023-07-19T17:29:33.273Z,99877.91
2023-07-19T17:32:00.956Z,99869.41
2023-07-19T17:34:28.614Z,99874.91
2023-07-19T17:36:56.313Z,99868.34
2023-07-19T17:39:23.860Z,99861.13
2023-07-19T17:41:51.402Z,99862.16
2023-07-19T17:44:19.018Z,99854.16
2023-07-19T17:46:46.615Z,99856.63
2023-07-19T17:49:14.258Z,99850.28
2023-07-19T17:51:42.190Z,99849.44
2023-07-19T17:54:09.792Z,99851.06
2023-07-19T17:56:37.383Z,99858.91
2023-07-19T17:59:04.952Z,99861.31
2023-07-19T18:01:32.560Z,99867.03
2023-07-19T18:04:00.195Z,99865.59
2023-07-19T18:06:27.784Z,99870.66
2023-07-19T18:08:55.222Z,99882.31
2023-07-19T18:11:23.141Z,99889.25
2023-07-19T18:13:50.876Z,99881.19
2023-07-19T18:16:18.592Z,99889.00
2023-07-19T18:18:46.172Z,99876.22
2023-07-19T18:21:14.265Z,99875.97
2023-07-19T18:23:41.983Z,99870.84
2023-07-19T18:26:09.661Z,99860.44
2023-07-19T18:28:37.396Z,99866.81
2023-07-19T18:31:05.011Z,99860.66
2023-07-19T18:33:32.671Z,99864.94
2023-07-19T18:36:00.264Z,99853.75
2023-07-19T18:38:28.314Z,99837.47
2023-07-19T18:40:55.936Z,99855.91
2023-07-19T18:43:23.563Z,99836.56
2023-07-19T18:45:52.134Z,99838.06
2023-07-19T18:48:19.809Z,99826.59
2023-07-19T18:50:47.334Z,99819.59
2023-07-19T18:53:15.007Z,99825.75
2023-07-19T18:55:44.488Z,99819.56
2023-07-19T18:58:12.648Z,99821.44
2023-07-19T19:00:40.760Z,99835.84
2023-07-19T19:03:08.442Z,99842.19
2023-07-19T19:05:35.996Z,99845.19
2023-07-19T19:08:03.620Z,99835.47
2023-07-19T19:10:31.132Z,99841.03
2023-07-19T19:12:59.098Z,99837.78
2023-07-19T19:15:26.796Z,99836.94
2023-07-19T19:17:54.327Z,99860.66
2023-07-19T19:20:22.165Z,99858.03
2023-07-19T19:22:50.545Z,99855.00
2023-07-19T19:25:18.229Z,99848.97
2023-07-19T19:27:45.739Z,99879.19
2023-07-19T19:30:13.467Z,99887.38
2023-07-19T19:32:41.187Z,99876.41
2023-07-19T19:35:09.031Z,99871.31
2023-07-19T19:37:36.663Z,99902.13
2023-07-19T19:40:04.959Z,99916.91
2023-07-19T19:42:32.690Z,99915.75
2023-07-19T19:45:00.209Z,99931.69
2023-07-19T19:47:28.118Z,99942.50
2023-07-19T19:49:56.516Z,99942.19
2023-07-19T19:52:26.564Z,99964.94
2023-07-19T19:54:54.062Z,99938.31
2023-07-19T19:57:21.676Z,99924.94
2023-07-19T19:59:50.248Z,99907.88
2023-07-19T20:04:50.957Z,99882.13
2023-07-19T20:07:18.646Z,99910.09
2023-07-19T20:09:59.873Z,99891.72
2023-07-19T20:12:29.460Z,99851.94
2023-07-19T20:14:57.031Z,99861.72
2023-07-19T20:17:25.077Z,99923.50
2023-07-19T20:19:54.172Z,99972.34
2023-07-19T20:22:22.283Z,100019.91
2023-07-19T20:24:56.933Z,100080.53
2023-07-19T20:27:28.705Z,100142.00
2023-07-19T20:34:57.591Z,100109.34
2023-07-19T20:39:55.551Z,99978.66
2023-07-19T20:42:27.392Z,99925.25
2023-07-19T20:44:55.864Z,99951.38
2023-07-19T20:47:23.914Z,99990.59
2023-07-19T20:49:51.466Z,99964.63
2023-07-19T20:52:19.053Z,99920.72
2023-07-19T20:54:46.492Z,99903.97
2023-07-19T20:57:14.046Z,99913.28
2023-07-19T20:59:41.876Z,99945.50
2023-07-19T21:02:10.261Z,99969.69
2023-07-19T21:04:38.921Z,99947.75
2023-07-19T21:07:06.601Z,99935.44
2023-07-19T21:09:34.172Z,99952.31
2023-07-19T21:12:01.672Z,99999.84
2023-07-19T21:14:29.155Z,99993.28
2023-07-19T21:16:56.650Z,99992.25
2023-07-19T21:19:24.149Z,99984.41
2023-07-19T21:21:51.578Z,99984.66
2023-07-19T21:24:19.094Z,100005.91
2023-07-19T21:26:46.631Z,100033.50
2023-07-19T21:29:14.261Z,100084.94
2023-07-19T21:31:42.328Z,100145.34
2023-07-19T21:34:09.810Z,100180.44
2023-07-19T21:36:37.245Z,100153.38
2023-07-19T21:39:05.098Z,100107.72
2023-07-19T21:41:32.697Z,100051.97
2023-07-19T21:44:01.123Z,100028.31
2023-07-19T21:46:29.086Z,100076.16
2023-07-19T21:48:56.876Z,100137.03
2023-07-19T21:51:24.923Z,100165.56
2023-07-19T21:53:52.551Z,100146.66
2023-07-19T21:56:21.838Z,100126.59
2023-07-19T21:58:49.624Z,100090.22
2023-07-19T22:01:17.137Z,100090.22
2023-07-19T22:03:44.941Z,100083.78
2023-07-19T22:06:12.566Z,100082.91
2023-07-19T22:08:41.605Z,100050.53
2023-07-19T22:11:10.470Z,100071.16
2023-07-19T22:13:40.394Z,100131.44
2023-07-19T22:16:08.220Z,100195.50
2023-07-19T22:18:35.899Z,100206.72
2023-07-19T22:21:19.477Z,100200.69
2023-07-19T22:23:49.679Z,100183.78
2023-07-19T22:26:17.487Z,100176.19
2023-07-19T22:28:45.157Z,100151.09
2023-07-19T22:31:12.990Z,100125.06
2023-07-19T22:33:40.651Z,100145.66
2023-07-19T22:36:08.244Z,100166.56
2023-07-19T22:38:35.722Z,100175.59
2023-07-19T22:41:03.262Z,100176.31
2023-07-19T22:43:30.924Z,100204.22
2023-07-19T22:45:58.492Z,100245.22
2023-07-19T22:48:26.060Z,100256.25
2023-07-19T22:50:53.644Z,100227.00
2023-07-19T22:53:21.534Z,100165.00
2023-07-19T22:55:49.121Z,100148.66
2023-07-19T22:58:16.811Z,100155.09
2023-07-19T23:00:44.502Z,100143.09
2023-07-19T23:03:12.088Z,100111.69
2023-07-19T23:05:41.163Z,100126.31
2023-07-19T23:08:08.676Z,100125.16
2023-07-19T23:10:36.311Z,100110.13
2023-07-19T23:13:04.333Z,100090.06
2023-07-19T23:15:31.996Z,100103.53
2023-07-19T23:18:00.230Z,100167.34
2023-07-19T23:20:27.846Z,100239.53
2023-07-19T23:22:57.126Z,100247.97
2023-07-19T23:25:27.111Z,100197.44
2023-07-19T23:28:01.976Z,100190.50
2023-07-19T23:30:30.670Z,100181.72
2023-07-19T23:33:02.066Z,100181.88
2023-07-19T23:35:29.525Z,100200.59
2023-07-19T23:37:57.594Z,100211.00
2023-07-19T23:40:25.213Z,100198.72
2023-07-19T23:42:52.829Z,100191.22
2023-07-19T23:45:20.324Z,100171.28
2023-07-19T23:47:49.851Z,100130.88
2023-07-19T23:50:17.584Z,100104.28
2023-07-19T23:52:45.155Z,100092.22
2023-07-19T23:55:12.829Z,100105.38
2023-07-19T23:57:40.793Z,100107.25
